This is the latest recevied weather packets stored in our database for station/object PY2FLB-13. If no packets are shown the sender has not sent any weather packets the latest 10 day(s).
| Time | Temp. | Humidity | Pressure | Rain* | Wind** | Luminosity | Snow |
|---|---|---|---|---|---|---|---|
| 1777940868 | 27.22° C | 49% | 1016.3 hPa | - | - | - | - |
| 1777940568 | 27.22° C | 49% | 1016.2 hPa | - | - | - | - |
| 1777940268 | 27.22° C | 49% | 1016.1 hPa | - | - | - | - |
| 1777939968 | 26.67° C | 50% | 1016.2 hPa | - | - | - | - |
| 1777939668 | 26.67° C | 51% | 1016.3 hPa | - | - | - | - |
| 1777939368 | 26.67° C | 51% | 1016.3 hPa | - | - | - | - |
| 1777939068 | 27.22° C | 50% | 1016.2 hPa | - | - | - | - |
| 1777938768 | 27.22° C | 50% | 1016.1 hPa | - | - | - | - |
| 1777938468 | 27.22° C | 50% | 1016 hPa | - | - | - | - |
| 1777938168 | 27.78° C | 49% | 1016 hPa | - | - | - | - |
| 1777937868 | 27.78° C | 48% | 1015.9 hPa | - | - | - | - |
| 1777937568 | 27.78° C | 49% | 1015.9 hPa | - | - | - | - |
| 1777937268 | 28.33° C | 48% | 1015.7 hPa | - | - | - | - |
| 1777936968 | 28.33° C | 48% | 1015.6 hPa | - | - | - | - |
| 1777936668 | 27.78° C | 48% | 1015.6 hPa | - | - | - | - |
| 1777936368 | 27.78° C | 49% | 1015.6 hPa | - | - | - | - |
| 1777936068 | 27.78° C | 49% | 1015.5 hPa | - | - | - | - |
| 1777935768 | 27.78° C | 49% | 1015.6 hPa | - | - | - | - |
| 1777935468 | 27.78° C | 49% | 1015.5 hPa | - | - | - | - |
| 1777935168 | 28.89° C | 46% | 1015.2 hPa | - | - | - | - |
| 1777934868 | 28.89° C | 47% | 1015.1 hPa | - | - | - | - |
| 1777934568 | 28.89° C | 46% | 1015.1 hPa | - | - | - | - |
| 1777934268 | 29.44° C | 45% | 1014.8 hPa | - | - | - | - |
| 1777933968 | 30° C | 45% | 1014.7 hPa | - | - | - | - |
| 1777933668 | 28.89° C | 48% | 1014.8 hPa | - | - | - | - |
* Rain since midnight (hover to see other rain measurements)
** Current wind speed in m/s (hover to see current wind gust speed)